Kennebec, South Dakota
Current Conditions -  °F | °C
As of 2:15 AM on Tuesday 21 Oct 2014 (Local Time) from K9V9 Reporting Station
Clear Clear  
Wind Chill:   Ceiling: Unl
Heat Index:   Visibility: 10mi
Dew Point:   Wind: 10mph
Humidity: 60%   Direction: 130°SE
Pressure: 29.98"   Gusts: NA
Location:  43.9°N, 99.86°W
Report Text: K9V9 210715Z AUTO 13009KT 10SM CLR 09/02 A2998 RMK AO2 T00900017
Loading
Personal Weather Stations






























Interactive Weather Map
Tropical Storm Tracking
New forecast layout! Learn more

10-Day Weather Forecast

Advertisements
Track Severe Weather on mobile